sensor_id;sensor_type;location;lat;lon;timestamp;pressure;altitude;pressure_sealevel;temperature;humidity
64713;BME280;51140;45.340;5.980;2022-07-29T00:02:09;98078.09;;;23.44;100.00
64713;BME280;51140;45.340;5.980;2022-07-29T00:04:35;98080.16;;;23.58;100.00
64713;BME280;51140;45.340;5.980;2022-07-29T00:07:01;98086.09;;;23.52;100.00
64713;BME280;51140;45.340;5.980;2022-07-29T00:09:26;98085.47;;;23.58;100.00
64713;BME280;51140;45.340;5.980;2022-07-29T00:11:53;98090.34;;;23.63;100.00
64713;BME280;51140;45.340;5.980;2022-07-29T00:14:20;98096.78;;;23.60;100.00
64713;BME280;51140;45.340;5.980;2022-07-29T00:16:45;98094.25;;;23.51;100.00
64713;BME280;51140;45.340;5.980;2022-07-29T00:19:10;98095.94;;;23.60;100.00
64713;BME280;51140;45.340;5.980;2022-07-29T00:21:36;98098.41;;;23.53;100.00
64713;BME280;51140;45.340;5.980;2022-07-29T00:24:01;98095.53;;;23.38;100.00
64713;BME280;51140;45.340;5.980;2022-07-29T00:26:27;98082.25;;;23.38;100.00
64713;BME280;51140;45.340;5.980;2022-07-29T00:28:57;98082.41;;;23.37;100.00
64713;BME280;51140;45.340;5.980;2022-07-29T00:31:23;98081.75;;;23.35;100.00
64713;BME280;51140;45.340;5.980;2022-07-29T00:33:48;98083.41;;;23.36;100.00
64713;BME280;51140;45.340;5.980;2022-07-29T00:36:14;98086.25;;;23.51;100.00
64713;BME280;51140;45.340;5.980;2022-07-29T00:38:39;98092.75;;;23.48;100.00
64713;BME280;51140;45.340;5.980;2022-07-29T00:41:06;98099.00;;;23.31;100.00
64713;BME280;51140;45.340;5.980;2022-07-29T00:43:32;98096.88;;;23.42;100.00
64713;BME280;51140;45.340;5.980;2022-07-29T00:45:57;98098.56;;;23.52;100.00
64713;BME280;51140;45.340;5.980;2022-07-29T00:48:22;98099.22;;;23.45;100.00
64713;BME280;51140;45.340;5.980;2022-07-29T00:50:49;98097.16;;;23.23;100.00
64713;BME280;51140;45.340;5.980;2022-07-29T00:53:14;98100.91;;;23.12;100.00
64713;BME280;51140;45.340;5.980;2022-07-29T00:55:39;98092.97;;;23.21;100.00
64713;BME280;51140;45.340;5.980;2022-07-29T00:58:06;98102.56;;;23.13;100.00
64713;BME280;51140;45.340;5.980;2022-07-29T01:00:31;98104.28;;;23.23;100.00
64713;BME280;51140;45.340;5.980;2022-07-29T01:02:57;98095.25;;;23.16;100.00
64713;BME280;51140;45.340;5.980;2022-07-29T01:05:24;98101.53;;;23.06;100.00
64713;BME280;51140;45.340;5.980;2022-07-29T01:07:53;98099.75;;;23.15;100.00
64713;BME280;51140;45.340;5.980;2022-07-29T01:10:20;98096.22;;;23.06;100.00
64713;BME280;51140;45.340;5.980;2022-07-29T01:12:48;98094.78;;;23.20;100.00
64713;BME280;51140;45.340;5.980;2022-07-29T01:15:14;98094.34;;;23.25;100.00
64713;BME280;51140;45.340;5.980;2022-07-29T01:17:46;98092.22;;;23.02;100.00
64713;BME280;51140;45.340;5.980;2022-07-29T01:23:40;98087.78;;;23.11;100.00
64713;BME280;51140;45.340;5.980;2022-07-29T01:26:33;98088.56;;;23.03;100.00
64713;BME280;51140;45.340;5.980;2022-07-29T01:29:01;98085.84;;;22.87;100.00
64713;BME280;51140;45.340;5.980;2022-07-29T01:31:33;98089.53;;;22.94;100.00
64713;BME280;51140;45.340;5.980;2022-07-29T01:34:03;98081.06;;;22.91;100.00
64713;BME280;51140;45.340;5.980;2022-07-29T01:36:35;98082.72;;;22.92;100.00
64713;BME280;51140;45.340;5.980;2022-07-29T01:39:05;98079.44;;;22.80;100.00
64713;BME280;51140;45.340;5.980;2022-07-29T01:41:32;98075.00;;;22.80;100.00
64713;BME280;51140;45.340;5.980;2022-07-29T01:44:05;98074.25;;;22.88;100.00
64713;BME280;51140;45.340;5.980;2022-07-29T01:46:35;98078.91;;;22.94;100.00
64713;BME280;51140;45.340;5.980;2022-07-29T01:49:17;98078.25;;;22.92;100.00
64713;BME280;51140;45.340;5.980;2022-07-29T01:51:48;98073.47;;;23.04;100.00
64713;BME280;51140;45.340;5.980;2022-07-29T01:57:06;98079.59;;;22.96;100.00
64713;BME280;51140;45.340;5.980;2022-07-29T01:59:34;98080.47;;;23.13;100.00
64713;BME280;51140;45.340;5.980;2022-07-29T02:02:01;98084.13;;;23.12;100.00
64713;BME280;51140;45.340;5.980;2022-07-29T02:04:27;98080.09;;;23.00;100.00
64713;BME280;51140;45.340;5.980;2022-07-29T02:06:58;98087.91;;;23.01;100.00
64713;BME280;51140;45.340;5.980;2022-07-29T02:09:25;98087.78;;;23.11;100.00
64713;BME280;51140;45.340;5.980;2022-07-29T02:11:53;98080.38;;;22.89;100.00
64713;BME280;51140;45.340;5.980;2022-07-29T02:14:21;98074.44;;;22.95;100.00
64713;BME280;51140;45.340;5.980;2022-07-29T02:16:51;98077.91;;;22.95;100.00
64713;BME280;51140;45.340;5.980;2022-07-29T02:19:21;98073.25;;;22.89;100.00
64713;BME280;51140;45.340;5.980;2022-07-29T02:21:48;98075.75;;;22.91;100.00
64713;BME280;51140;45.340;5.980;2022-07-29T02:24:14;98083.25;;;23.03;100.00
64713;BME280;51140;45.340;5.980;2022-07-29T02:26:42;98077.59;;;22.98;100.00
64713;BME280;51140;45.340;5.980;2022-07-29T02:29:09;98081.69;;;22.85;100.00
64713;BME280;51140;45.340;5.980;2022-07-29T02:31:37;98082.84;;;22.82;100.00
64713;BME280;51140;45.340;5.980;2022-07-29T02:34:05;98081.84;;;22.65;100.00
64713;BME280;51140;45.340;5.980;2022-07-29T02:36:32;98088.69;;;22.42;100.00
64713;BME280;51140;45.340;5.980;2022-07-29T02:39:00;98086.66;;;22.18;100.00
64713;BME280;51140;45.340;5.980;2022-07-29T02:41:40;98093.63;;;22.19;100.00
64713;BME280;51140;45.340;5.980;2022-07-29T02:44:11;98087.81;;;22.15;100.00
64713;BME280;51140;45.340;5.980;2022-07-29T02:46:45;98093.69;;;22.27;100.00
64713;BME280;51140;45.340;5.980;2022-07-29T02:51:54;98098.94;;;22.19;100.00
64713;BME280;51140;45.340;5.980;2022-07-29T02:54:26;98090.78;;;22.38;100.00
64713;BME280;51140;45.340;5.980;2022-07-29T02:56:58;98096.34;;;22.27;100.00
64713;BME280;51140;45.340;5.980;2022-07-29T02:59:26;98101.97;;;22.24;100.00
64713;BME280;51140;45.340;5.980;2022-07-29T03:01:54;98101.59;;;22.19;100.00
64713;BME280;51140;45.340;5.980;2022-07-29T03:04:22;98094.00;;;22.24;100.00
64713;BME280;51140;45.340;5.980;2022-07-29T03:06:50;98093.53;;;22.29;100.00
64713;BME280;51140;45.340;5.980;2022-07-29T03:09:17;98099.75;;;22.37;100.00
64713;BME280;51140;45.340;5.980;2022-07-29T03:11:43;98103.13;;;22.22;100.00
64713;BME280;51140;45.340;5.980;2022-07-29T03:14:09;98103.63;;;21.89;100.00
64713;BME280;51140;45.340;5.980;2022-07-29T03:16:35;98098.78;;;22.03;100.00
64713;BME280;51140;45.340;5.980;2022-07-29T03:19:02;98100.84;;;22.09;100.00
64713;BME280;51140;45.340;5.980;2022-07-29T03:21:29;98098.53;;;21.96;100.00
64713;BME280;51140;45.340;5.980;2022-07-29T03:23:54;98100.13;;;21.89;100.00
64713;BME280;51140;45.340;5.980;2022-07-29T03:26:20;98101.13;;;21.88;100.00
64713;BME280;51140;45.340;5.980;2022-07-29T03:28:45;98103.25;;;21.84;100.00
64713;BME280;51140;45.340;5.980;2022-07-29T03:31:11;98111.88;;;21.86;100.00
64713;BME280;51140;45.340;5.980;2022-07-29T03:33:36;98115.88;;;21.90;100.00
64713;BME280;51140;45.340;5.980;2022-07-29T03:36:01;98111.03;;;21.86;100.00
64713;BME280;51140;45.340;5.980;2022-07-29T03:38:29;98117.47;;;21.83;100.00
64713;BME280;51140;45.340;5.980;2022-07-29T03:41:01;98120.66;;;21.87;100.00
64713;BME280;51140;45.340;5.980;2022-07-29T03:43:31;98129.75;;;21.84;100.00
64713;BME280;51140;45.340;5.980;2022-07-29T03:45:59;98136.44;;;21.88;100.00
64713;BME280;51140;45.340;5.980;2022-07-29T03:48:26;98134.53;;;21.81;100.00
64713;BME280;51140;45.340;5.980;2022-07-29T03:50:55;98134.75;;;21.70;100.00
64713;BME280;51140;45.340;5.980;2022-07-29T03:53:20;98134.00;;;21.77;100.00
64713;BME280;51140;45.340;5.980;2022-07-29T03:55:50;98137.09;;;21.90;100.00
64713;BME280;51140;45.340;5.980;2022-07-29T03:58:18;98137.88;;;22.01;100.00
64713;BME280;51140;45.340;5.980;2022-07-29T04:00:44;98144.47;;;21.97;100.00
64713;BME280;51140;45.340;5.980;2022-07-29T04:03:10;98149.31;;;22.01;100.00
64713;BME280;51140;45.340;5.980;2022-07-29T04:05:36;98153.34;;;21.60;100.00
64713;BME280;51140;45.340;5.980;2022-07-29T04:08:01;98162.00;;;21.35;100.00
64713;BME280;51140;45.340;5.980;2022-07-29T04:10:27;98167.16;;;21.36;100.00
64713;BME280;51140;45.340;5.980;2022-07-29T04:12:52;98172.34;;;21.55;100.00
64713;BME280;51140;45.340;5.980;2022-07-29T04:15:18;98184.06;;;21.53;100.00
64713;BME280;51140;45.340;5.980;2022-07-29T04:17:43;98183.50;;;21.32;100.00
64713;BME280;51140;45.340;5.980;2022-07-29T04:20:09;98192.56;;;21.29;100.00
64713;BME280;51140;45.340;5.980;2022-07-29T04:22:38;98188.41;;;21.54;100.00
64713;BME280;51140;45.340;5.980;2022-07-29T04:25:04;98181.81;;;21.58;100.00
64713;BME280;51140;45.340;5.980;2022-07-29T04:27:29;98172.72;;;21.61;100.00
64713;BME280;51140;45.340;5.980;2022-07-29T04:29:55;98162.53;;;21.66;100.00
64713;BME280;51140;45.340;5.980;2022-07-29T04:32:20;98158.31;;;21.73;100.00
64713;BME280;51140;45.340;5.980;2022-07-29T04:34:46;98159.06;;;21.83;100.00
64713;BME280;51140;45.340;5.980;2022-07-29T04:37:11;98165.97;;;21.94;100.00
64713;BME280;51140;45.340;5.980;2022-07-29T04:39:37;98177.28;;;21.96;100.00
64713;BME280;51140;45.340;5.980;2022-07-29T04:42:02;98172.94;;;21.95;100.00
64713;BME280;51140;45.340;5.980;2022-07-29T04:44:28;98181.28;;;22.00;100.00
64713;BME280;51140;45.340;5.980;2022-07-29T04:46:53;98185.22;;;21.96;100.00
64713;BME280;51140;45.340;5.980;2022-07-29T04:49:19;98186.50;;;21.92;100.00
64713;BME280;51140;45.340;5.980;2022-07-29T04:51:44;98188.84;;;22.04;100.00
64713;BME280;51140;45.340;5.980;2022-07-29T04:54:09;98186.44;;;22.11;100.00
64713;BME280;51140;45.340;5.980;2022-07-29T04:56:35;98180.44;;;21.99;100.00
64713;BME280;51140;45.340;5.980;2022-07-29T04:59:00;98179.53;;;22.18;100.00
64713;BME280;51140;45.340;5.980;2022-07-29T05:01:25;98173.53;;;22.34;100.00
64713;BME280;51140;45.340;5.980;2022-07-29T05:03:51;98181.34;;;22.35;100.00
64713;BME280;51140;45.340;5.980;2022-07-29T05:06:16;98177.53;;;22.38;100.00
64713;BME280;51140;45.340;5.980;2022-07-29T05:08:42;98182.16;;;22.36;100.00
64713;BME280;51140;45.340;5.980;2022-07-29T05:11:07;98190.28;;;22.34;100.00
64713;BME280;51140;45.340;5.980;2022-07-29T05:13:32;98197.72;;;22.48;100.00
64713;BME280;51140;45.340;5.980;2022-07-29T05:15:58;98199.63;;;22.56;100.00
64713;BME280;51140;45.340;5.980;2022-07-29T05:18:24;98193.00;;;22.60;100.00
64713;BME280;51140;45.340;5.980;2022-07-29T05:20:50;98199.22;;;22.69;100.00
64713;BME280;51140;45.340;5.980;2022-07-29T05:23:15;98203.41;;;22.89;100.00
64713;BME280;51140;45.340;5.980;2022-07-29T05:25:41;98199.22;;;23.12;100.00
64713;BME280;51140;45.340;5.980;2022-07-29T05:28:07;98210.22;;;23.18;100.00
64713;BME280;51140;45.340;5.980;2022-07-29T05:30:32;98217.16;;;22.85;100.00
64713;BME280;51140;45.340;5.980;2022-07-29T05:32:57;98222.19;;;22.78;100.00
64713;BME280;51140;45.340;5.980;2022-07-29T05:35:23;98212.06;;;22.56;100.00
64713;BME280;51140;45.340;5.980;2022-07-29T05:37:48;98217.19;;;22.75;100.00
64713;BME280;51140;45.340;5.980;2022-07-29T05:40:14;98226.72;;;23.03;100.00
64713;BME280;51140;45.340;5.980;2022-07-29T05:42:39;98232.59;;;22.71;100.00
64713;BME280;51140;45.340;5.980;2022-07-29T05:45:05;98223.50;;;22.38;100.00
64713;BME280;51140;45.340;5.980;2022-07-29T05:47:30;98229.34;;;22.60;100.00
64713;BME280;51140;45.340;5.980;2022-07-29T05:49:56;98219.28;;;23.07;100.00
64713;BME280;51140;45.340;5.980;2022-07-29T05:52:22;98214.97;;;23.32;100.00
64713;BME280;51140;45.340;5.980;2022-07-29T05:54:47;98211.47;;;23.31;100.00
64713;BME280;51140;45.340;5.980;2022-07-29T05:57:22;98210.63;;;23.31;100.00
64713;BME280;51140;45.340;5.980;2022-07-29T05:59:47;98211.53;;;23.48;100.00
64713;BME280;51140;45.340;5.980;2022-07-29T06:02:13;98232.25;;;23.36;100.00
64713;BME280;51140;45.340;5.980;2022-07-29T06:04:39;98229.81;;;23.42;100.00
64713;BME280;51140;45.340;5.980;2022-07-29T06:07:05;98245.63;;;23.52;100.00
64713;BME280;51140;45.340;5.980;2022-07-29T06:09:31;98246.78;;;23.50;100.00
64713;BME280;51140;45.340;5.980;2022-07-29T06:11:57;98253.53;;;23.62;100.00
64713;BME280;51140;45.340;5.980;2022-07-29T06:14:23;98255.22;;;23.45;100.00
64713;BME280;51140;45.340;5.980;2022-07-29T06:16:48;98244.88;;;23.60;100.00
64713;BME280;51140;45.340;5.980;2022-07-29T06:19:14;98245.03;;;23.58;100.00
64713;BME280;51140;45.340;5.980;2022-07-29T06:21:43;98238.16;;;23.82;100.00
64713;BME280;51140;45.340;5.980;2022-07-29T06:24:10;98236.22;;;24.00;100.00
64713;BME280;51140;45.340;5.980;2022-07-29T06:26:36;98253.56;;;24.04;100.00
64713;BME280;51140;45.340;5.980;2022-07-29T06:29:01;98255.69;;;24.00;100.00
64713;BME280;51140;45.340;5.980;2022-07-29T06:31:26;98252.66;;;24.37;100.00
64713;BME280;51140;45.340;5.980;2022-07-29T06:33:52;98248.81;;;24.32;100.00
64713;BME280;51140;45.340;5.980;2022-07-29T06:36:18;98240.72;;;24.50;100.00
64713;BME280;51140;45.340;5.980;2022-07-29T06:38:43;98248.56;;;24.84;100.00
64713;BME280;51140;45.340;5.980;2022-07-29T06:41:08;98251.69;;;24.71;100.00
64713;BME280;51140;45.340;5.980;2022-07-29T06:43:39;98259.03;;;24.61;100.00
64713;BME280;51140;45.340;5.980;2022-07-29T06:46:11;98246.53;;;24.45;100.00
64713;BME280;51140;45.340;5.980;2022-07-29T06:48:37;98251.03;;;24.53;100.00
64713;BME280;51140;45.340;5.980;2022-07-29T06:51:03;98242.66;;;24.40;100.00
64713;BME280;51140;45.340;5.980;2022-07-29T06:53:30;98252.81;;;24.28;100.00
64713;BME280;51140;45.340;5.980;2022-07-29T06:55:56;98258.72;;;24.05;100.00
64713;BME280;51140;45.340;5.980;2022-07-29T06:58:23;98264.91;;;24.22;100.00
64713;BME280;51140;45.340;5.980;2022-07-29T07:00:48;98265.56;;;24.24;100.00
64713;BME280;51140;45.340;5.980;2022-07-29T07:03:15;98265.75;;;23.81;100.00
64713;BME280;51140;45.340;5.980;2022-07-29T07:05:40;98275.19;;;23.49;100.00
64713;BME280;51140;45.340;5.980;2022-07-29T07:08:06;98269.34;;;23.63;100.00
64713;BME280;51140;45.340;5.980;2022-07-29T07:10:32;98256.91;;;24.14;100.00
64713;BME280;51140;45.340;5.980;2022-07-29T07:12:57;98261.03;;;24.75;100.00
64713;BME280;51140;45.340;5.980;2022-07-29T07:15:23;98266.53;;;25.30;100.00
64713;BME280;51140;45.340;5.980;2022-07-29T07:17:48;98267.13;;;25.73;100.00
64713;BME280;51140;45.340;5.980;2022-07-29T07:20:17;98267.53;;;25.93;100.00
64713;BME280;51140;45.340;5.980;2022-07-29T07:22:43;98265.19;;;25.98;100.00
64713;BME280;51140;45.340;5.980;2022-07-29T07:25:09;98277.00;;;25.48;100.00
64713;BME280;51140;45.340;5.980;2022-07-29T07:27:35;98275.63;;;25.77;100.00
64713;BME280;51140;45.340;5.980;2022-07-29T07:30:03;98268.16;;;26.11;100.00
64713;BME280;51140;45.340;5.980;2022-07-29T07:32:30;98271.50;;;25.66;100.00
64713;BME280;51140;45.340;5.980;2022-07-29T07:34:56;98273.81;;;25.53;100.00
64713;BME280;51140;45.340;5.980;2022-07-29T07:37:21;98278.03;;;24.82;100.00
64713;BME280;51140;45.340;5.980;2022-07-29T07:39:47;98283.66;;;24.79;100.00
64713;BME280;51140;45.340;5.980;2022-07-29T07:42:12;98284.59;;;24.37;100.00
64713;BME280;51140;45.340;5.980;2022-07-29T07:44:39;98286.00;;;24.08;100.00
64713;BME280;51140;45.340;5.980;2022-07-29T07:47:05;98292.19;;;23.82;100.00
64713;BME280;51140;45.340;5.980;2022-07-29T07:49:30;98292.88;;;23.84;100.00
64713;BME280;51140;45.340;5.980;2022-07-29T07:51:55;98296.63;;;23.65;100.00
64713;BME280;51140;45.340;5.980;2022-07-29T07:54:21;98297.13;;;23.51;100.00
64713;BME280;51140;45.340;5.980;2022-07-29T07:56:46;98299.97;;;23.75;100.00
64713;BME280;51140;45.340;5.980;2022-07-29T07:59:15;98307.28;;;23.73;100.00
64713;BME280;51140;45.340;5.980;2022-07-29T08:01:40;98307.28;;;23.73;100.00
64713;BME280;51140;45.340;5.980;2022-07-29T08:04:05;98316.75;;;23.50;100.00
64713;BME280;51140;45.340;5.980;2022-07-29T08:06:32;98321.00;;;23.17;100.00
64713;BME280;51140;45.340;5.980;2022-07-29T08:09:00;98322.78;;;22.91;100.00
64713;BME280;51140;45.340;5.980;2022-07-29T08:11:25;98319.25;;;22.55;100.00
64713;BME280;51140;45.340;5.980;2022-07-29T08:13:50;98315.75;;;22.72;100.00
64713;BME280;51140;45.340;5.980;2022-07-29T08:16:17;98313.59;;;22.85;100.00
64713;BME280;51140;45.340;5.980;2022-07-29T08:18:44;98317.56;;;22.54;100.00
64713;BME280;51140;45.340;5.980;2022-07-29T08:21:09;98320.00;;;22.65;100.00
64713;BME280;51140;45.340;5.980;2022-07-29T08:23:35;98320.13;;;23.78;100.00
64713;BME280;51140;45.340;5.980;2022-07-29T08:26:08;98306.75;;;23.44;100.00
64713;BME280;51140;45.340;5.980;2022-07-29T08:28:45;98308.97;;;22.87;100.00
64713;BME280;51140;45.340;5.980;2022-07-29T08:31:12;98311.13;;;22.74;100.00
64713;BME280;51140;45.340;5.980;2022-07-29T08:33:37;98327.28;;;23.34;100.00
64713;BME280;51140;45.340;5.980;2022-07-29T08:36:04;98312.63;;;24.58;100.00
64713;BME280;51140;45.340;5.980;2022-07-29T08:38:29;98322.78;;;24.79;100.00
64713;BME280;51140;45.340;5.980;2022-07-29T08:40:55;98318.59;;;24.10;100.00
64713;BME280;51140;45.340;5.980;2022-07-29T08:43:20;98321.97;;;23.86;100.00
64713;BME280;51140;45.340;5.980;2022-07-29T08:45:47;98307.09;;;24.43;100.00
64713;BME280;51140;45.340;5.980;2022-07-29T08:48:23;98299.19;;;25.16;100.00
64713;BME280;51140;45.340;5.980;2022-07-29T08:50:54;98300.97;;;24.67;100.00
64713;BME280;51140;45.340;5.980;2022-07-29T08:53:21;98305.22;;;24.35;100.00
64713;BME280;51140;45.340;5.980;2022-07-29T08:55:48;98307.28;;;24.08;100.00
64713;BME280;51140;45.340;5.980;2022-07-29T08:58:15;98311.81;;;24.23;100.00
64713;BME280;51140;45.340;5.980;2022-07-29T09:00:46;98305.63;;;24.06;100.00
64713;BME280;51140;45.340;5.980;2022-07-29T09:03:15;98315.53;;;23.96;100.00
64713;BME280;51140;45.340;5.980;2022-07-29T09:05:43;98314.28;;;24.09;100.00
64713;BME280;51140;45.340;5.980;2022-07-29T09:08:10;98336.09;;;24.20;100.00
64713;BME280;51140;45.340;5.980;2022-07-29T09:10:36;98377.31;;;23.56;100.00
64713;BME280;51140;45.340;5.980;2022-07-29T09:13:01;98437.38;;;23.49;100.00
64713;BME280;51140;45.340;5.980;2022-07-29T09:15:27;98497.56;;;23.50;100.00
64713;BME280;51140;45.340;5.980;2022-07-29T09:17:52;98537.97;;;23.36;100.00
64713;BME280;51140;45.340;5.980;2022-07-29T09:20:20;98555.66;;;23.27;100.00
64713;BME280;51140;45.340;5.980;2022-07-29T09:22:47;98549.06;;;23.31;100.00
64713;BME280;51140;45.340;5.980;2022-07-29T09:25:38;98561.44;;;23.23;100.00
64713;BME280;51140;45.340;5.980;2022-07-29T09:28:11;98586.47;;;22.93;100.00
64713;BME280;51140;45.340;5.980;2022-07-29T09:30:55;98613.38;;;21.93;100.00
64713;BME280;51140;45.340;5.980;2022-07-29T09:33:22;98623.59;;;21.88;100.00
64713;BME280;51140;45.340;5.980;2022-07-29T09:36:18;98621.88;;;21.58;100.00
64713;BME280;51140;45.340;5.980;2022-07-29T09:38:56;98631.47;;;21.49;100.00
64713;BME280;51140;45.340;5.980;2022-07-29T09:41:22;98639.81;;;21.35;100.00
64713;BME280;51140;45.340;5.980;2022-07-29T09:43:57;98653.88;;;21.05;100.00
64713;BME280;51140;45.340;5.980;2022-07-29T09:46:23;98653.31;;;21.02;100.00
64713;BME280;51140;45.340;5.980;2022-07-29T09:49:08;98653.69;;;20.67;100.00
64713;BME280;51140;45.340;5.980;2022-07-29T09:51:34;98650.91;;;20.68;100.00
64713;BME280;51140;45.340;5.980;2022-07-29T09:54:00;98662.84;;;20.83;100.00
64713;BME280;51140;45.340;5.980;2022-07-29T09:56:41;98652.25;;;20.83;100.00
64713;BME280;51140;45.340;5.980;2022-07-29T09:59:08;98653.56;;;20.47;100.00
64713;BME280;51140;45.340;5.980;2022-07-29T10:01:34;98657.34;;;20.75;100.00
64713;BME280;51140;45.340;5.980;2022-07-29T10:04:01;98659.59;;;20.80;100.00
64713;BME280;51140;45.340;5.980;2022-07-29T10:06:27;98653.75;;;20.55;100.00
64713;BME280;51140;45.340;5.980;2022-07-29T10:08:53;98656.59;;;20.43;100.00
64713;BME280;51140;45.340;5.980;2022-07-29T10:11:18;98657.88;;;20.69;100.00
64713;BME280;51140;45.340;5.980;2022-07-29T10:13:46;98652.56;;;20.69;100.00
64713;BME280;51140;45.340;5.980;2022-07-29T10:16:13;98656.13;;;20.79;100.00
64713;BME280;51140;45.340;5.980;2022-07-29T10:18:39;98661.22;;;20.92;100.00
64713;BME280;51140;45.340;5.980;2022-07-29T10:21:06;98650.91;;;20.89;100.00
64713;BME280;51140;45.340;5.980;2022-07-29T10:23:33;98647.31;;;21.00;100.00
64713;BME280;51140;45.340;5.980;2022-07-29T10:25:59;98647.63;;;21.06;100.00
64713;BME280;51140;45.340;5.980;2022-07-29T10:28:25;98647.53;;;20.87;100.00
64713;BME280;51140;45.340;5.980;2022-07-29T10:30:52;98644.84;;;21.08;100.00
64713;BME280;51140;45.340;5.980;2022-07-29T10:39:05;98647.34;;;21.09;100.00
64713;BME280;51140;45.340;5.980;2022-07-29T10:44:52;98649.63;;;21.54;100.00
64713;BME280;51140;45.340;5.980;2022-07-29T10:47:25;98654.69;;;21.67;100.00
64713;BME280;51140;45.340;5.980;2022-07-29T10:49:56;98657.56;;;21.54;100.00
64713;BME280;51140;45.340;5.980;2022-07-29T10:52:22;98651.41;;;21.13;100.00
64713;BME280;51140;45.340;5.980;2022-07-29T10:54:50;98660.72;;;21.08;100.00
64713;BME280;51140;45.340;5.980;2022-07-29T10:57:27;98652.38;;;21.43;100.00
64713;BME280;51140;45.340;5.980;2022-07-29T11:05:03;98662.00;;;21.44;100.00
64713;BME280;51140;45.340;5.980;2022-07-29T11:07:29;98671.66;;;21.54;100.00
64713;BME280;51140;45.340;5.980;2022-07-29T11:10:19;98665.97;;;21.59;100.00
64713;BME280;51140;45.340;5.980;2022-07-29T11:12:45;98668.22;;;22.99;100.00
64713;BME280;51140;45.340;5.980;2022-07-29T11:15:19;98651.34;;;24.00;100.00
64713;BME280;51140;45.340;5.980;2022-07-29T11:23:17;98661.78;;;23.38;100.00
64713;BME280;51140;45.340;5.980;2022-07-29T11:25:43;98653.84;;;23.29;100.00
64713;BME280;51140;45.340;5.980;2022-07-29T11:28:14;98668.16;;;23.18;100.00
64713;BME280;51140;45.340;5.980;2022-07-29T11:30:52;98665.75;;;22.88;100.00
64713;BME280;51140;45.340;5.980;2022-07-29T11:33:47;98661.59;;;23.12;100.00
64713;BME280;51140;45.340;5.980;2022-07-29T11:36:14;98650.81;;;23.24;100.00
64713;BME280;51140;45.340;5.980;2022-07-29T11:38:40;98653.75;;;23.48;100.00
64713;BME280;51140;45.340;5.980;2022-07-29T11:41:24;98653.06;;;23.46;100.00
64713;BME280;51140;45.340;5.980;2022-07-29T11:43:57;98652.06;;;23.20;100.00
64713;BME280;51140;45.340;5.980;2022-07-29T11:46:48;98646.19;;;23.26;100.00
64713;BME280;51140;45.340;5.980;2022-07-29T11:49:24;98642.25;;;23.20;100.00
64713;BME280;51140;45.340;5.980;2022-07-29T11:51:54;98641.88;;;23.15;100.00
64713;BME280;51140;45.340;5.980;2022-07-29T11:54:32;98631.47;;;23.31;100.00
64713;BME280;51140;45.340;5.980;2022-07-29T11:56:58;98626.91;;;23.41;100.00
64713;BME280;51140;45.340;5.980;2022-07-29T11:59:24;98614.97;;;23.55;100.00
64713;BME280;51140;45.340;5.980;2022-07-29T12:01:54;98612.66;;;23.88;100.00
64713;BME280;51140;45.340;5.980;2022-07-29T12:04:19;98593.88;;;24.07;100.00
64713;BME280;51140;45.340;5.980;2022-07-29T12:06:52;98590.47;;;23.79;100.00
64713;BME280;51140;45.340;5.980;2022-07-29T12:09:18;98597.53;;;23.88;100.00
64713;BME280;51140;45.340;5.980;2022-07-29T12:11:45;98598.59;;;23.78;100.00
64713;BME280;51140;45.340;5.980;2022-07-29T12:14:33;98602.31;;;23.85;100.00
64713;BME280;51140;45.340;5.980;2022-07-29T12:16:59;98596.06;;;23.94;100.00
64713;BME280;51140;45.340;5.980;2022-07-29T12:19:26;98595.47;;;23.64;100.00
64713;BME280;51140;45.340;5.980;2022-07-29T12:21:53;98588.19;;;23.84;100.00
64713;BME280;51140;45.340;5.980;2022-07-29T12:24:20;98571.53;;;23.82;100.00
64713;BME280;51140;45.340;5.980;2022-07-29T12:26:56;98577.63;;;23.47;100.00
64713;BME280;51140;45.340;5.980;2022-07-29T12:29:22;98573.75;;;23.69;100.00
64713;BME280;51140;45.340;5.980;2022-07-29T12:31:52;98570.44;;;23.93;100.00
64713;BME280;51140;45.340;5.980;2022-07-29T12:34:20;98570.69;;;23.64;100.00
64713;BME280;51140;45.340;5.980;2022-07-29T12:36:46;98563.25;;;23.67;100.00
64713;BME280;51140;45.340;5.980;2022-07-29T12:39:11;98570.69;;;23.82;100.00
64713;BME280;51140;45.340;5.980;2022-07-29T12:41:38;98579.94;;;24.13;100.00
64713;BME280;51140;45.340;5.980;2022-07-29T12:44:04;98585.63;;;24.36;100.00
64713;BME280;51140;45.340;5.980;2022-07-29T12:46:29;98582.94;;;24.54;100.00
64713;BME280;51140;45.340;5.980;2022-07-29T12:48:55;98584.28;;;23.96;100.00
64713;BME280;51140;45.340;5.980;2022-07-29T12:51:31;98586.56;;;24.45;100.00
64713;BME280;51140;45.340;5.980;2022-07-29T12:56:33;98575.72;;;24.98;100.00
64713;BME280;51140;45.340;5.980;2022-07-29T12:58:59;98586.06;;;24.75;100.00
64713;BME280;51140;45.340;5.980;2022-07-29T13:01:25;98592.53;;;25.41;100.00
64713;BME280;51140;45.340;5.980;2022-07-29T13:03:58;98575.22;;;25.53;100.00
64713;BME280;51140;45.340;5.980;2022-07-29T13:09:17;98571.16;;;25.99;100.00
64713;BME280;51140;45.340;5.980;2022-07-29T13:11:51;98575.66;;;26.64;100.00
64713;BME280;51140;45.340;5.980;2022-07-29T13:14:31;98581.34;;;26.61;100.00
64713;BME280;51140;45.340;5.980;2022-07-29T13:17:02;98565.34;;;26.44;100.00
64713;BME280;51140;45.340;5.980;2022-07-29T13:20:07;98567.16;;;26.11;100.00
64713;BME280;51140;45.340;5.980;2022-07-29T13:22:37;98567.16;;;26.11;100.00
64713;BME280;51140;45.340;5.980;2022-07-29T13:25:03;98573.44;;;26.75;100.00
64713;BME280;51140;45.340;5.980;2022-07-29T13:27:33;98558.97;;;27.09;100.00
64713;BME280;51140;45.340;5.980;2022-07-29T13:30:00;98553.38;;;26.79;100.00